sensor_id;sensor_type;location;lat;lon;timestamp;P1;durP1;ratioP1;P2;durP2;ratioP2
10275;SDS011;5183;51.190;6.820;2023-03-18T00:01:26;8.40;;;5.53;;
10275;SDS011;5183;51.190;6.820;2023-03-18T00:03:55;8.50;;;5.03;;
10275;SDS011;5183;51.190;6.820;2023-03-18T00:06:21;6.67;;;5.50;;
10275;SDS011;5183;51.190;6.820;2023-03-18T00:08:48;9.67;;;5.63;;
10275;SDS011;5183;51.190;6.820;2023-03-18T00:11:19;10.57;;;5.60;;
10275;SDS011;5183;51.190;6.820;2023-03-18T00:13:47;8.13;;;5.33;;
10275;SDS011;5183;51.190;6.820;2023-03-18T00:16:14;9.20;;;5.50;;
10275;SDS011;5183;51.190;6.820;2023-03-18T00:18:41;7.83;;;5.50;;
10275;SDS011;5183;51.190;6.820;2023-03-18T00:21:10;9.30;;;5.47;;
10275;SDS011;5183;51.190;6.820;2023-03-18T00:23:37;9.77;;;5.80;;
10275;SDS011;5183;51.190;6.820;2023-03-18T00:26:04;8.83;;;5.77;;
10275;SDS011;5183;51.190;6.820;2023-03-18T00:28:33;7.63;;;5.40;;
10275;SDS011;5183;51.190;6.820;2023-03-18T00:31:03;8.43;;;5.57;;
10275;SDS011;5183;51.190;6.820;2023-03-18T00:33:32;10.07;;;5.50;;
10275;SDS011;5183;51.190;6.820;2023-03-18T00:36:00;8.70;;;5.73;;
10275;SDS011;5183;51.190;6.820;2023-03-18T00:38:29;10.10;;;5.80;;
10275;SDS011;5183;51.190;6.820;2023-03-18T00:40:56;8.50;;;5.93;;
10275;SDS011;5183;51.190;6.820;2023-03-18T00:43:37;9.10;;;6.03;;
10275;SDS011;5183;51.190;6.820;2023-03-18T00:46:11;10.53;;;6.37;;
10275;SDS011;5183;51.190;6.820;2023-03-18T00:48:40;10.80;;;6.23;;
10275;SDS011;5183;51.190;6.820;2023-03-18T00:51:07;8.43;;;5.90;;
10275;SDS011;5183;51.190;6.820;2023-03-18T00:53:39;9.83;;;5.87;;
10275;SDS011;5183;51.190;6.820;2023-03-18T00:56:06;7.23;;;5.23;;
10275;SDS011;5183;51.190;6.820;2023-03-18T00:58:33;7.50;;;5.80;;
10275;SDS011;5183;51.190;6.820;2023-03-18T01:01:01;8.60;;;6.10;;
10275;SDS011;5183;51.190;6.820;2023-03-18T01:03:29;7.80;;;5.67;;
10275;SDS011;5183;51.190;6.820;2023-03-18T01:05:55;8.93;;;6.17;;
10275;SDS011;5183;51.190;6.820;2023-03-18T01:08:22;8.87;;;6.60;;
10275;SDS011;5183;51.190;6.820;2023-03-18T01:10:52;7.73;;;5.57;;
10275;SDS011;5183;51.190;6.820;2023-03-18T01:13:19;11.93;;;6.30;;
10275;SDS011;5183;51.190;6.820;2023-03-18T01:15:48;8.47;;;5.60;;
10275;SDS011;5183;51.190;6.820;2023-03-18T01:18:15;9.23;;;5.63;;
10275;SDS011;5183;51.190;6.820;2023-03-18T01:20:42;11.30;;;6.17;;
10275;SDS011;5183;51.190;6.820;2023-03-18T01:23:10;8.07;;;5.57;;
10275;SDS011;5183;51.190;6.820;2023-03-18T01:25:37;9.80;;;6.07;;
10275;SDS011;5183;51.190;6.820;2023-03-18T01:28:06;11.13;;;5.37;;
10275;SDS011;5183;51.190;6.820;2023-03-18T01:30:33;10.20;;;5.83;;
10275;SDS011;5183;51.190;6.820;2023-03-18T01:33:00;11.07;;;5.87;;
10275;SDS011;5183;51.190;6.820;2023-03-18T01:35:28;8.73;;;5.67;;
10275;SDS011;5183;51.190;6.820;2023-03-18T01:37:56;11.10;;;6.27;;
10275;SDS011;5183;51.190;6.820;2023-03-18T01:40:23;9.20;;;5.90;;
10275;SDS011;5183;51.190;6.820;2023-03-18T01:42:52;7.83;;;5.80;;
10275;SDS011;5183;51.190;6.820;2023-03-18T01:45:24;9.83;;;5.70;;
10275;SDS011;5183;51.190;6.820;2023-03-18T01:47:53;7.87;;;5.57;;
10275;SDS011;5183;51.190;6.820;2023-03-18T01:50:21;8.37;;;5.47;;
10275;SDS011;5183;51.190;6.820;2023-03-18T01:52:53;10.07;;;5.50;;
10275;SDS011;5183;51.190;6.820;2023-03-18T01:55:23;8.33;;;5.97;;
10275;SDS011;5183;51.190;6.820;2023-03-18T01:57:53;9.03;;;6.13;;
10275;SDS011;5183;51.190;6.820;2023-03-18T02:00:20;8.17;;;6.00;;
10275;SDS011;5183;51.190;6.820;2023-03-18T02:02:49;10.83;;;6.13;;
10275;SDS011;5183;51.190;6.820;2023-03-18T02:05:19;12.43;;;6.23;;
10275;SDS011;5183;51.190;6.820;2023-03-18T02:07:47;10.83;;;6.03;;
10275;SDS011;5183;51.190;6.820;2023-03-18T02:10:17;7.97;;;6.03;;
10275;SDS011;5183;51.190;6.820;2023-03-18T02:12:48;9.07;;;5.80;;
10275;SDS011;5183;51.190;6.820;2023-03-18T02:15:18;8.80;;;6.50;;
10275;SDS011;5183;51.190;6.820;2023-03-18T02:17:51;7.50;;;6.10;;
10275;SDS011;5183;51.190;6.820;2023-03-18T02:20:27;10.27;;;6.13;;
10275;SDS011;5183;51.190;6.820;2023-03-18T02:23:03;9.93;;;6.07;;
10275;SDS011;5183;51.190;6.820;2023-03-18T02:25:38;10.97;;;7.37;;
10275;SDS011;5183;51.190;6.820;2023-03-18T02:28:15;13.03;;;7.03;;
10275;SDS011;5183;51.190;6.820;2023-03-18T02:30:47;12.33;;;7.40;;
10275;SDS011;5183;51.190;6.820;2023-03-18T02:33:18;9.27;;;7.30;;
10275;SDS011;5183;51.190;6.820;2023-03-18T02:35:50;10.40;;;7.43;;
10275;SDS011;5183;51.190;6.820;2023-03-18T02:38:21;10.30;;;7.63;;
10275;SDS011;5183;51.190;6.820;2023-03-18T02:40:48;12.37;;;7.53;;
10275;SDS011;5183;51.190;6.820;2023-03-18T02:43:18;10.53;;;7.60;;
10275;SDS011;5183;51.190;6.820;2023-03-18T02:45:54;11.80;;;7.97;;
10275;SDS011;5183;51.190;6.820;2023-03-18T02:48:32;14.07;;;8.43;;
10275;SDS011;5183;51.190;6.820;2023-03-18T02:51:03;14.47;;;8.13;;
10275;SDS011;5183;51.190;6.820;2023-03-18T02:53:31;12.33;;;8.10;;
10275;SDS011;5183;51.190;6.820;2023-03-18T02:55:58;8.93;;;7.70;;
10275;SDS011;5183;51.190;6.820;2023-03-18T02:58:27;11.77;;;7.93;;
10275;SDS011;5183;51.190;6.820;2023-03-18T03:00:54;10.13;;;7.90;;
10275;SDS011;5183;51.190;6.820;2023-03-18T03:03:22;13.53;;;7.77;;
10275;SDS011;5183;51.190;6.820;2023-03-18T03:05:49;12.20;;;8.00;;
10275;SDS011;5183;51.190;6.820;2023-03-18T03:08:16;11.33;;;8.10;;
10275;SDS011;5183;51.190;6.820;2023-03-18T03:10:43;12.20;;;7.73;;
10275;SDS011;5183;51.190;6.820;2023-03-18T03:13:10;13.40;;;8.00;;
10275;SDS011;5183;51.190;6.820;2023-03-18T03:15:39;11.43;;;8.20;;
10275;SDS011;5183;51.190;6.820;2023-03-18T03:18:06;11.67;;;8.23;;
10275;SDS011;5183;51.190;6.820;2023-03-18T03:20:34;15.33;;;9.00;;
10275;SDS011;5183;51.190;6.820;2023-03-18T03:23:03;14.97;;;9.20;;
10275;SDS011;5183;51.190;6.820;2023-03-18T03:25:30;10.77;;;8.27;;
10275;SDS011;5183;51.190;6.820;2023-03-18T03:27:58;15.80;;;9.27;;
10275;SDS011;5183;51.190;6.820;2023-03-18T03:30:25;14.10;;;9.30;;
10275;SDS011;5183;51.190;6.820;2023-03-18T03:32:53;13.30;;;9.50;;
10275;SDS011;5183;51.190;6.820;2023-03-18T03:35:21;11.10;;;8.80;;
10275;SDS011;5183;51.190;6.820;2023-03-18T03:37:48;12.73;;;9.77;;
10275;SDS011;5183;51.190;6.820;2023-03-18T03:40:16;16.03;;;10.37;;
10275;SDS011;5183;51.190;6.820;2023-03-18T03:42:44;14.17;;;9.93;;
10275;SDS011;5183;51.190;6.820;2023-03-18T03:45:13;12.83;;;10.60;;
10275;SDS011;5183;51.190;6.820;2023-03-18T03:47:42;13.77;;;10.90;;
10275;SDS011;5183;51.190;6.820;2023-03-18T03:50:12;14.33;;;9.63;;
10275;SDS011;5183;51.190;6.820;2023-03-18T03:52:40;13.20;;;9.80;;
10275;SDS011;5183;51.190;6.820;2023-03-18T03:55:08;14.77;;;10.13;;
10275;SDS011;5183;51.190;6.820;2023-03-18T03:57:38;15.43;;;10.17;;
10275;SDS011;5183;51.190;6.820;2023-03-18T04:00:06;15.43;;;11.17;;
10275;SDS011;5183;51.190;6.820;2023-03-18T04:02:37;14.77;;;10.40;;
10275;SDS011;5183;51.190;6.820;2023-03-18T04:05:04;15.67;;;11.10;;
10275;SDS011;5183;51.190;6.820;2023-03-18T04:07:33;13.87;;;11.63;;
10275;SDS011;5183;51.190;6.820;2023-03-18T04:10:00;15.13;;;11.03;;
10275;SDS011;5183;51.190;6.820;2023-03-18T04:12:27;14.63;;;11.77;;
10275;SDS011;5183;51.190;6.820;2023-03-18T04:14:54;17.57;;;11.50;;
10275;SDS011;5183;51.190;6.820;2023-03-18T04:17:21;15.73;;;12.20;;
10275;SDS011;5183;51.190;6.820;2023-03-18T04:19:48;16.97;;;11.53;;
10275;SDS011;5183;51.190;6.820;2023-03-18T04:22:15;16.30;;;11.60;;
10275;SDS011;5183;51.190;6.820;2023-03-18T04:24:44;16.10;;;11.80;;
10275;SDS011;5183;51.190;6.820;2023-03-18T04:27:11;15.93;;;11.50;;
10275;SDS011;5183;51.190;6.820;2023-03-18T04:29:38;16.23;;;12.53;;
10275;SDS011;5183;51.190;6.820;2023-03-18T04:32:05;16.17;;;12.27;;
10275;SDS011;5183;51.190;6.820;2023-03-18T04:34:32;13.03;;;11.63;;
10275;SDS011;5183;51.190;6.820;2023-03-18T04:36:59;15.00;;;11.93;;
10275;SDS011;5183;51.190;6.820;2023-03-18T04:39:26;15.73;;;12.13;;
10275;SDS011;5183;51.190;6.820;2023-03-18T04:41:55;16.10;;;11.97;;
10275;SDS011;5183;51.190;6.820;2023-03-18T04:44:22;16.07;;;12.03;;
10275;SDS011;5183;51.190;6.820;2023-03-18T04:46:49;17.97;;;12.37;;
10275;SDS011;5183;51.190;6.820;2023-03-18T04:49:16;17.87;;;12.93;;
10275;SDS011;5183;51.190;6.820;2023-03-18T04:51:43;15.10;;;12.43;;
10275;SDS011;5183;51.190;6.820;2023-03-18T04:54:10;17.70;;;13.07;;
10275;SDS011;5183;51.190;6.820;2023-03-18T04:56:37;16.70;;;12.90;;
10275;SDS011;5183;51.190;6.820;2023-03-18T04:59:06;17.00;;;13.83;;
10275;SDS011;5183;51.190;6.820;2023-03-18T05:01:33;15.97;;;13.47;;
10275;SDS011;5183;51.190;6.820;2023-03-18T05:04:00;17.67;;;14.10;;
10275;SDS011;5183;51.190;6.820;2023-03-18T05:06:27;18.13;;;13.83;;
10275;SDS011;5183;51.190;6.820;2023-03-18T05:08:56;17.23;;;13.67;;
10275;SDS011;5183;51.190;6.820;2023-03-18T05:11:23;16.17;;;13.63;;
10275;SDS011;5183;51.190;6.820;2023-03-18T05:13:51;17.10;;;13.67;;
10275;SDS011;5183;51.190;6.820;2023-03-18T05:16:20;16.37;;;13.57;;
10275;SDS011;5183;51.190;6.820;2023-03-18T05:18:47;17.87;;;14.27;;
10275;SDS011;5183;51.190;6.820;2023-03-18T05:21:14;17.80;;;13.83;;
10275;SDS011;5183;51.190;6.820;2023-03-18T05:23:41;16.27;;;13.43;;
10275;SDS011;5183;51.190;6.820;2023-03-18T05:26:08;17.53;;;12.73;;
10275;SDS011;5183;51.190;6.820;2023-03-18T05:28:35;17.73;;;13.00;;
10275;SDS011;5183;51.190;6.820;2023-03-18T05:31:03;16.30;;;12.33;;
10275;SDS011;5183;51.190;6.820;2023-03-18T05:33:31;15.37;;;12.87;;
10275;SDS011;5183;51.190;6.820;2023-03-18T05:35:58;14.23;;;12.63;;
10275;SDS011;5183;51.190;6.820;2023-03-18T05:38:25;16.40;;;12.93;;
10275;SDS011;5183;51.190;6.820;2023-03-18T05:40:52;12.87;;;11.20;;
10275;SDS011;5183;51.190;6.820;2023-03-18T05:43:19;16.00;;;12.13;;
10275;SDS011;5183;51.190;6.820;2023-03-18T05:45:47;17.13;;;12.37;;
10275;SDS011;5183;51.190;6.820;2023-03-18T05:48:14;15.30;;;11.70;;
10275;SDS011;5183;51.190;6.820;2023-03-18T05:50:43;16.00;;;12.17;;
10275;SDS011;5183;51.190;6.820;2023-03-18T05:53:10;13.80;;;11.63;;
10275;SDS011;5183;51.190;6.820;2023-03-18T05:55:40;13.57;;;10.87;;
10275;SDS011;5183;51.190;6.820;2023-03-18T05:58:07;12.80;;;10.50;;
10275;SDS011;5183;51.190;6.820;2023-03-18T06:00:35;11.43;;;10.07;;
10275;SDS011;5183;51.190;6.820;2023-03-18T06:03:02;13.57;;;10.30;;
10275;SDS011;5183;51.190;6.820;2023-03-18T06:05:30;11.67;;;10.47;;
10275;SDS011;5183;51.190;6.820;2023-03-18T06:07:58;11.90;;;10.20;;
10275;SDS011;5183;51.190;6.820;2023-03-18T06:10:25;15.13;;;10.30;;
10275;SDS011;5183;51.190;6.820;2023-03-18T06:12:53;14.15;;;10.85;;
10275;SDS011;5183;51.190;6.820;2023-03-18T06:15:20;13.53;;;11.03;;
10275;SDS011;5183;51.190;6.820;2023-03-18T06:17:48;12.33;;;11.03;;
10275;SDS011;5183;51.190;6.820;2023-03-18T06:20:15;12.43;;;9.97;;
10275;SDS011;5183;51.190;6.820;2023-03-18T06:22:43;13.43;;;10.27;;
10275;SDS011;5183;51.190;6.820;2023-03-18T06:25:15;13.80;;;10.27;;
10275;SDS011;5183;51.190;6.820;2023-03-18T06:27:46;16.00;;;11.00;;
10275;SDS011;5183;51.190;6.820;2023-03-18T06:30:13;12.33;;;10.20;;
10275;SDS011;5183;51.190;6.820;2023-03-18T06:32:40;13.13;;;9.90;;
10275;SDS011;5183;51.190;6.820;2023-03-18T06:35:08;13.00;;;9.90;;
10275;SDS011;5183;51.190;6.820;2023-03-18T06:37:35;14.43;;;11.67;;
10275;SDS011;5183;51.190;6.820;2023-03-18T06:40:03;21.20;;;16.47;;
10275;SDS011;5183;51.190;6.820;2023-03-18T06:42:33;16.07;;;12.37;;
10275;SDS011;5183;51.190;6.820;2023-03-18T06:44:59;14.47;;;10.53;;
10275;SDS011;5183;51.190;6.820;2023-03-18T06:47:26;13.83;;;10.37;;
10275;SDS011;5183;51.190;6.820;2023-03-18T06:49:53;14.63;;;10.80;;
10275;SDS011;5183;51.190;6.820;2023-03-18T06:52:21;13.23;;;10.13;;
10275;SDS011;5183;51.190;6.820;2023-03-18T06:54:48;13.33;;;10.60;;
10275;SDS011;5183;51.190;6.820;2023-03-18T06:57:15;15.93;;;12.07;;
10275;SDS011;5183;51.190;6.820;2023-03-18T06:59:44;16.77;;;11.90;;
10275;SDS011;5183;51.190;6.820;2023-03-18T07:02:12;19.63;;;13.37;;
10275;SDS011;5183;51.190;6.820;2023-03-18T07:04:39;16.57;;;13.03;;
10275;SDS011;5183;51.190;6.820;2023-03-18T07:07:06;16.07;;;13.60;;
10275;SDS011;5183;51.190;6.820;2023-03-18T07:09:33;16.50;;;12.40;;
10275;SDS011;5183;51.190;6.820;2023-03-18T07:12:00;17.40;;;12.13;;
10275;SDS011;5183;51.190;6.820;2023-03-18T07:14:27;14.53;;;11.47;;
10275;SDS011;5183;51.190;6.820;2023-03-18T07:16:56;14.80;;;11.27;;
10275;SDS011;5183;51.190;6.820;2023-03-18T07:19:23;15.90;;;11.07;;
10275;SDS011;5183;51.190;6.820;2023-03-18T07:21:50;13.83;;;10.60;;
10275;SDS011;5183;51.190;6.820;2023-03-18T07:24:17;11.70;;;10.30;;
10275;SDS011;5183;51.190;6.820;2023-03-18T07:26:45;15.03;;;11.17;;
10275;SDS011;5183;51.190;6.820;2023-03-18T07:29:14;12.47;;;9.87;;
10275;SDS011;5183;51.190;6.820;2023-03-18T07:31:41;13.40;;;10.00;;
10275;SDS011;5183;51.190;6.820;2023-03-18T07:34:09;14.10;;;9.87;;
10275;SDS011;5183;51.190;6.820;2023-03-18T07:36:36;12.73;;;10.10;;
10275;SDS011;5183;51.190;6.820;2023-03-18T07:39:03;12.50;;;10.27;;
10275;SDS011;5183;51.190;6.820;2023-03-18T07:41:30;12.43;;;10.37;;
10275;SDS011;5183;51.190;6.820;2023-03-18T07:43:57;10.70;;;9.23;;
10275;SDS011;5183;51.190;6.820;2023-03-18T07:46:24;11.90;;;9.63;;
10275;SDS011;5183;51.190;6.820;2023-03-18T07:48:51;10.77;;;9.07;;
10275;SDS011;5183;51.190;6.820;2023-03-18T07:51:20;11.70;;;8.60;;
10275;SDS011;5183;51.190;6.820;2023-03-18T07:53:47;8.47;;;7.60;;
10275;SDS011;5183;51.190;6.820;2023-03-18T07:56:15;12.10;;;8.17;;
10275;SDS011;5183;51.190;6.820;2023-03-18T07:58:43;9.40;;;7.90;;
10275;SDS011;5183;51.190;6.820;2023-03-18T08:01:09;9.23;;;7.27;;
10275;SDS011;5183;51.190;6.820;2023-03-18T08:03:40;10.33;;;6.87;;
10275;SDS011;5183;51.190;6.820;2023-03-18T08:06:07;9.93;;;7.43;;
10275;SDS011;5183;51.190;6.820;2023-03-18T08:08:36;9.53;;;6.63;;
10275;SDS011;5183;51.190;6.820;2023-03-18T08:11:04;7.70;;;7.00;;
10275;SDS011;5183;51.190;6.820;2023-03-18T08:13:33;7.47;;;6.67;;
10275;SDS011;5183;51.190;6.820;2023-03-18T08:16:00;11.40;;;6.90;;
10275;SDS011;5183;51.190;6.820;2023-03-18T08:18:27;7.33;;;6.47;;
10275;SDS011;5183;51.190;6.820;2023-03-18T08:20:54;6.50;;;5.87;;
10275;SDS011;5183;51.190;6.820;2023-03-18T08:23:20;5.93;;;5.33;;
10275;SDS011;5183;51.190;6.820;2023-03-18T08:25:49;7.23;;;5.20;;
10275;SDS011;5183;51.190;6.820;2023-03-18T08:28:16;8.63;;;4.70;;
10275;SDS011;5183;51.190;6.820;2023-03-18T08:30:44;7.47;;;4.80;;
10275;SDS011;5183;51.190;6.820;2023-03-18T08:33:11;8.33;;;4.83;;
10275;SDS011;5183;51.190;6.820;2023-03-18T08:35:39;7.73;;;4.87;;
10275;SDS011;5183;51.190;6.820;2023-03-18T08:38:06;4.80;;;4.40;;
10275;SDS011;5183;51.190;6.820;2023-03-18T08:40:34;5.67;;;4.40;;
10275;SDS011;5183;51.190;6.820;2023-03-18T08:43:02;7.97;;;4.83;;
10275;SDS011;5183;51.190;6.820;2023-03-18T08:45:29;5.50;;;4.50;;
10275;SDS011;5183;51.190;6.820;2023-03-18T08:47:56;6.67;;;4.20;;
10275;SDS011;5183;51.190;6.820;2023-03-18T08:50:23;7.43;;;4.80;;
10275;SDS011;5183;51.190;6.820;2023-03-18T08:52:53;8.07;;;4.70;;
10275;SDS011;5183;51.190;6.820;2023-03-18T08:55:22;5.70;;;4.23;;
10275;SDS011;5183;51.190;6.820;2023-03-18T08:57:53;4.87;;;4.37;;
10275;SDS011;5183;51.190;6.820;2023-03-18T09:00:22;7.43;;;4.20;;
10275;SDS011;5183;51.190;6.820;2023-03-18T09:02:49;5.77;;;4.90;;
10275;SDS011;5183;51.190;6.820;2023-03-18T09:05:16;6.40;;;4.43;;
10275;SDS011;5183;51.190;6.820;2023-03-18T09:07:43;8.27;;;5.07;;
10275;SDS011;5183;51.190;6.820;2023-03-18T09:10:10;7.67;;;4.63;;
10275;SDS011;5183;51.190;6.820;2023-03-18T09:12:39;5.27;;;4.77;;
10275;SDS011;5183;51.190;6.820;2023-03-18T09:15:07;6.00;;;4.30;;
10275;SDS011;5183;51.190;6.820;2023-03-18T09:17:36;4.33;;;3.93;;
10275;SDS011;5183;51.190;6.820;2023-03-18T09:20:05;4.10;;;3.73;;
10275;SDS011;5183;51.190;6.820;2023-03-18T09:22:33;6.73;;;4.07;;
10275;SDS011;5183;51.190;6.820;2023-03-18T09:25:00;6.13;;;4.40;;
10275;SDS011;5183;51.190;6.820;2023-03-18T09:27:27;6.77;;;4.23;;
10275;SDS011;5183;51.190;6.820;2023-03-18T09:29:54;5.60;;;4.23;;
10275;SDS011;5183;51.190;6.820;2023-03-18T09:32:21;7.03;;;4.30;;
10275;SDS011;5183;51.190;6.820;2023-03-18T09:34:50;6.67;;;4.50;;
10275;SDS011;5183;51.190;6.820;2023-03-18T09:37:17;5.30;;;4.20;;
10275;SDS011;5183;51.190;6.820;2023-03-18T09:39:45;4.07;;;3.67;;
10275;SDS011;5183;51.190;6.820;2023-03-18T09:42:20;4.87;;;4.03;;
10275;SDS011;5183;51.190;6.820;2023-03-18T09:44:57;4.17;;;3.60;;
10275;SDS011;5183;51.190;6.820;2023-03-18T09:47:37;4.83;;;3.53;;
10275;SDS011;5183;51.190;6.820;2023-03-18T09:50:18;5.97;;;3.87;;
10275;SDS011;5183;51.190;6.820;2023-03-18T09:52:58;3.90;;;3.40;;
10275;SDS011;5183;51.190;6.820;2023-03-18T09:55:35;4.30;;;3.70;;
10275;SDS011;5183;51.190;6.820;2023-03-18T09:58:13;4.97;;;3.47;;
10275;SDS011;5183;51.190;6.820;2023-03-18T10:00:45;6.10;;;4.20;;
10275;SDS011;5183;51.190;6.820;2023-03-18T10:03:13;5.47;;;3.57;;
10275;SDS011;5183;51.190;6.820;2023-03-18T10:05:54;6.20;;;3.80;;
10275;SDS011;5183;51.190;6.820;2023-03-18T10:08:28;4.73;;;3.50;;
10275;SDS011;5183;51.190;6.820;2023-03-18T10:11:04;6.80;;;3.70;;
10275;SDS011;5183;51.190;6.820;2023-03-18T10:13:39;5.57;;;3.73;;
10275;SDS011;5183;51.190;6.820;2023-03-18T10:16:12;4.70;;;3.60;;
10275;SDS011;5183;51.190;6.820;2023-03-18T10:18:45;4.30;;;3.33;;
10275;SDS011;5183;51.190;6.820;2023-03-18T10:21:15;3.77;;;3.30;;
10275;SDS011;5183;51.190;6.820;2023-03-18T10:23:52;3.77;;;3.40;;
10275;SDS011;5183;51.190;6.820;2023-03-18T10:26:27;5.07;;;3.30;;
10275;SDS011;5183;51.190;6.820;2023-03-18T10:29:11;5.57;;;3.53;;
10275;SDS011;5183;51.190;6.820;2023-03-18T10:31:53;5.90;;;3.60;;
10275;SDS011;5183;51.190;6.820;2023-03-18T10:34:36;4.80;;;3.00;;
10275;SDS011;5183;51.190;6.820;2023-03-18T10:37:16;4.70;;;3.17;;
10275;SDS011;5183;51.190;6.820;2023-03-18T10:39:48;3.90;;;2.90;;
10275;SDS011;5183;51.190;6.820;2023-03-18T10:42:18;3.17;;;2.83;;
10275;SDS011;5183;51.190;6.820;2023-03-18T10:44:46;3.70;;;2.60;;
10275;SDS011;5183;51.190;6.820;2023-03-18T10:47:16;3.87;;;2.67;;
10275;SDS011;5183;51.190;6.820;2023-03-18T10:49:48;4.27;;;2.70;;
10275;SDS011;5183;51.190;6.820;2023-03-18T10:52:26;3.67;;;3.10;;
10275;SDS011;5183;51.190;6.820;2023-03-18T10:54:59;4.83;;;2.70;;
10275;SDS011;5183;51.190;6.820;2023-03-18T10:57:26;3.87;;;2.97;;
10275;SDS011;5183;51.190;6.820;2023-03-18T10:59:52;4.53;;;3.13;;
10275;SDS011;5183;51.190;6.820;2023-03-18T11:02:21;3.97;;;2.87;;
10275;SDS011;5183;51.190;6.820;2023-03-18T11:04:56;3.67;;;2.40;;
10275;SDS011;5183;51.190;6.820;2023-03-18T11:07:29;4.07;;;2.80;;
10275;SDS011;5183;51.190;6.820;2023-03-18T11:10:09;3.53;;;2.67;;
10275;SDS011;5183;51.190;6.820;2023-03-18T11:12:39;3.60;;;2.60;;
10275;SDS011;5183;51.190;6.820;2023-03-18T11:15:09;4.03;;;2.57;;
10275;SDS011;5183;51.190;6.820;2023-03-18T11:17:36;3.30;;;2.97;;
10275;SDS011;5183;51.190;6.820;2023-03-18T11:20:06;4.17;;;2.97;;
10275;SDS011;5183;51.190;6.820;2023-03-18T11:22:48;3.83;;;3.03;;
10275;SDS011;5183;51.190;6.820;2023-03-18T11:25:16;4.23;;;2.97;;
10275;SDS011;5183;51.190;6.820;2023-03-18T11:27:47;6.80;;;3.23;;
10275;SDS011;5183;51.190;6.820;2023-03-18T11:30:17;3.20;;;2.60;;
10275;SDS011;5183;51.190;6.820;2023-03-18T11:32:53;3.47;;;3.10;;
10275;SDS011;5183;51.190;6.820;2023-03-18T11:35:23;5.10;;;3.57;;
10275;SDS011;5183;51.190;6.820;2023-03-18T11:37:52;4.57;;;3.13;;
10275;SDS011;5183;51.190;6.820;2023-03-18T11:40:23;4.17;;;3.40;;
10275;SDS011;5183;51.190;6.820;2023-03-18T11:42:55;6.53;;;3.00;;
10275;SDS011;5183;51.190;6.820;2023-03-18T11:45:28;4.93;;;3.20;;
10275;SDS011;5183;51.190;6.820;2023-03-18T11:48:17;5.77;;;3.30;;
10275;SDS011;5183;51.190;6.820;2023-03-18T11:50:56;5.83;;;3.17;;
10275;SDS011;5183;51.190;6.820;2023-03-18T11:53:35;6.77;;;3.97;;
10275;SDS011;5183;51.190;6.820;2023-03-18T11:56:13;4.90;;;3.27;;
10275;SDS011;5183;51.190;6.820;2023-03-18T11:58:52;5.53;;;3.53;;
10275;SDS011;5183;51.190;6.820;2023-03-18T12:01:40;5.27;;;3.60;;
10275;SDS011;5183;51.190;6.820;2023-03-18T12:04:20;5.57;;;3.70;;
10275;SDS011;5183;51.190;6.820;2023-03-18T12:07:07;3.70;;;3.23;;
10275;SDS011;5183;51.190;6.820;2023-03-18T12:09:44;3.80;;;3.00;;
10275;SDS011;5183;51.190;6.820;2023-03-18T12:12:21;4.43;;;3.00;;
10275;SDS011;5183;51.190;6.820;2023-03-18T12:15:00;5.17;;;3.00;;
10275;SDS011;5183;51.190;6.820;2023-03-18T12:17:31;4.83;;;2.70;;
10275;SDS011;5183;51.190;6.820;2023-03-18T12:20:10;4.23;;;3.10;;
10275;SDS011;5183;51.190;6.820;2023-03-18T12:23:02;4.17;;;2.93;;
10275;SDS011;5183;51.190;6.820;2023-03-18T12:25:48;3.70;;;2.90;;
10275;SDS011;5183;51.190;6.820;2023-03-18T12:28:29;3.87;;;2.90;;
10275;SDS011;5183;51.190;6.820;2023-03-18T12:31:05;4.60;;;2.97;;
10275;SDS011;5183;51.190;6.820;2023-03-18T12:33:56;4.32;;;2.85;;
10275;SDS011;5183;51.190;6.820;2023-03-18T12:36:30;4.30;;;2.87;;
10275;SDS011;5183;51.190;6.820;2023-03-18T12:42:14;3.40;;;2.33;;
10275;SDS011;5183;51.190;6.820;2023-03-18T12:44:46;3.47;;;2.70;;
10275;SDS011;5183;51.190;6.820;2023-03-18T12:47:24;3.50;;;2.90;;
10275;SDS011;5183;51.190;6.820;2023-03-18T12:49:58;3.47;;;2.60;;
10275;SDS011;5183;51.190;6.820;2023-03-18T12:52:29;4.67;;;3.03;;
10275;SDS011;5183;51.190;6.820;2023-03-18T12:55:03;4.07;;;2.67;;
10275;SDS011;5183;51.190;6.820;2023-03-18T12:57:39;2.57;;;2.33;;
10275;SDS011;5183;51.190;6.820;2023-03-18T13:00:14;4.47;;;2.27;;
10275;SDS011;5183;51.190;6.820;2023-03-18T13:02:46;3.83;;;2.30;;
10275;SDS011;5183;51.190;6.820;2023-03-18T13:05:20;2.73;;;2.23;;
10275;SDS011;5183;51.190;6.820;2023-03-18T13:08:00;4.20;;;2.60;;
10275;SDS011;5183;51.190;6.820;2023-03-18T13:10:53;3.37;;;2.67;;
10275;SDS011;5183;51.190;6.820;2023-03-18T13:13:30;4.13;;;3.70;;
10275;SDS011;5183;51.190;6.820;2023-03-18T13:16:00;3.87;;;2.20;;
10275;SDS011;5183;51.190;6.820;2023-03-18T13:18:30;3.90;;;2.30;;
10275;SDS011;5183;51.190;6.820;2023-03-18T13:21:03;3.90;;;2.50;;
10275;SDS011;5183;51.190;6.820;2023-03-18T13:26:45;4.33;;;2.27;;
10275;SDS011;5183;51.190;6.820;2023-03-18T13:29:33;3.87;;;2.20;;
10275;SDS011;5183;51.190;6.820;2023-03-18T13:32:09;3.60;;;2.30;;
10275;SDS011;5183;51.190;6.820;2023-03-18T13:34:53;3.73;;;2.27;;
10275;SDS011;5183;51.190;6.820;2023-03-18T13:40:32;3.20;;;2.40;;
10275;SDS011;5183;51.190;6.820;2023-03-18T13:43:10;3.90;;;2.43;;
10275;SDS011;5183;51.190;6.820;2023-03-18T13:45:43;3.47;;;2.50;;
10275;SDS011;5183;51.190;6.820;2023-03-18T13:48:12;5.17;;;3.00;;
10275;SDS011;5183;51.190;6.820;2023-03-18T13:50:43;5.03;;;2.80;;
10275;SDS011;5183;51.190;6.820;2023-03-18T13:53:17;4.27;;;2.60;;
10275;SDS011;5183;51.190;6.820;2023-03-18T13:55:51;4.67;;;2.57;;
10275;SDS011;5183;51.190;6.820;2023-03-18T13:58:25;10.60;;;5.23;;
10275;SDS011;5183;51.190;6.820;2023-03-18T14:06:54;4.43;;;2.30;;
10275;SDS011;5183;51.190;6.820;2023-03-18T14:12:22;4.53;;;2.67;;
10275;SDS011;5183;51.190;6.820;2023-03-18T14:18:26;3.77;;;2.70;;
10275;SDS011;5183;51.190;6.820;2023-03-18T14:21:01;3.83;;;2.47;;
10275;SDS011;5183;51.190;6.820;2023-03-18T14:23:33;5.07;;;2.97;;
10275;SDS011;5183;51.190;6.820;2023-03-18T14:26:07;4.33;;;2.77;;
10275;SDS011;5183;51.190;6.820;2023-03-18T14:28:47;4.30;;;2.60;;
10275;SDS011;5183;51.190;6.820;2023-03-18T14:31:19;4.77;;;2.43;;
10275;SDS011;5183;51.190;6.820;2023-03-18T14:34:03;3.07;;;2.30;;
10275;SDS011;5183;51.190;6.820;2023-03-18T14:39:45;6.57;;;2.10;;
10275;SDS011;5183;51.190;6.820;2023-03-18T14:42:24;3.97;;;2.10;;
10275;SDS011;5183;51.190;6.820;2023-03-18T14:44:58;4.20;;;2.20;;
10275;SDS011;5183;51.190;6.820;2023-03-18T14:47:32;4.47;;;2.53;;
10275;SDS011;5183;51.190;6.820;2023-03-18T14:50:11;5.47;;;2.43;;
10275;SDS011;5183;51.190;6.820;2023-03-18T14:52:40;3.37;;;1.93;;
10275;SDS011;5183;51.190;6.820;2023-03-18T14:55:12;4.23;;;2.20;;
10275;SDS011;5183;51.190;6.820;2023-03-18T14:57:43;3.57;;;2.20;;
10275;SDS011;5183;51.190;6.820;2023-03-18T15:00:12;3.10;;;2.17;;
10275;SDS011;5183;51.190;6.820;2023-03-18T15:02:40;3.40;;;1.90;;
10275;SDS011;5183;51.190;6.820;2023-03-18T15:05:10;6.57;;;5.27;;
10275;SDS011;5183;51.190;6.820;2023-03-18T15:07:41;2.80;;;2.30;;
10275;SDS011;5183;51.190;6.820;2023-03-18T15:10:08;5.87;;;4.17;;
10275;SDS011;5183;51.190;6.820;2023-03-18T15:12:38;3.63;;;2.70;;
10275;SDS011;5183;51.190;6.820;2023-03-18T15:15:05;3.45;;;2.45;;
10275;SDS011;5183;51.190;6.820;2023-03-18T15:17:38;3.50;;;2.47;;
10275;SDS011;5183;51.190;6.820;2023-03-18T15:20:10;3.92;;;2.60;;
10275;SDS011;5183;51.190;6.820;2023-03-18T15:22:39;3.20;;;2.40;;
10275;SDS011;5183;51.190;6.820;2023-03-18T15:25:10;4.73;;;2.90;;
10275;SDS011;5183;51.190;6.820;2023-03-18T15:27:43;3.07;;;2.00;;
10275;SDS011;5183;51.190;6.820;2023-03-18T15:30:20;4.53;;;2.53;;
10275;SDS011;5183;51.190;6.820;2023-03-18T15:32:51;5.37;;;2.70;;
10275;SDS011;5183;51.190;6.820;2023-03-18T15:35:29;4.50;;;2.57;;
10275;SDS011;5183;51.190;6.820;2023-03-18T15:38:04;4.43;;;2.60;;